Flinterbothnia — PBLG — position and weather

sailwx.info

Track history (hours):
 
Tides and Currents Weather Stations Pressure Air Temp Water Temp Dewpoint Dewpoint Depression Visibility Wind Speed Wind Dir Waves Ship Positions

Flinterbothnia

Last reported at 2015-May-27 03:33 UTC. Time now 2015-May-27 03:47 UTC.
Position N 54°50' W 005°40'.

Length 82 m; draft 5 m.

Type: Cargo ship. MMSI: 244741000.

Date/timePositionNaut miles runAvg speedWind from/ knotsBaromVisibWave heightAir tempDewpointWater temp
2015-May-27 03:33N 54°50' W 005°40'18 8.7
2015-May-27 01:31N 55°06' W 005°51'1010.4
2015-May-27 00:34N 55°15' W 006°00'9 9.3
2015-May-26 23:33N 55°22' W 006°12'9 9.4
2015-May-26 22:33N 55°29' W 006°22'9 8.8
2015-May-26 21:33N 55°36' W 006°30'8 7.7
2015-May-26 20:33N 55°44' W 006°34'147 9.0
2015-May-26 04:08N 58°09' W 005°50'6 9.7
2015-May-26 03:33N 58°13' W 005°43'10 9.4
2015-May-26 02:29N 58°21' W 005°30'40 7.9
2015-May-25 21:25N 58°40' W 004°23'8 9.0
2015-May-25 20:34N 58°40' W 004°08'9 8.9
2015-May-25 19:33N 58°41' W 003°51'13 9.1
2015-May-25 18:05N 58°42' W 003°25'6 8.7
2015-May-25 17:23N 58°42' W 003°13'6 7.6
2015-May-25 16:33N 58°42' W 003°01'8 7.6
2015-May-25 15:33N 58°41' W 002°46'385 9.1
2015-May-23 21:11N 57°50' E 009°19'5 8.2
2015-May-23 20:33N 57°50' E 009°28'8 8.1
2015-May-23 19:33N 57°50' E 009°43'8 8.3
2015-May-23 18:33N 57°49' E 009°59'9 8.7
2015-May-23 17:34N 57°49' E 010°15'9 8.6
2015-May-23 16:33N 57°48' E 010°31'8 8.3
2015-May-23 15:34N 57°47' E 010°47'9 9.3
2015-May-23 14:34N 57°41' E 010°60'10 9.5
2015-May-23 13:33N 57°35' E 011°13'1010.3
2015-May-23 12:34N 57°27' E 011°26'10 9.6
2015-May-23 11:34N 57°18' E 011°33'11 9.2
2015-May-23 10:25N 57°09' E 011°41'8 9.0
2015-May-23 09:33N 57°02' E 011°47'9 8.7
2015-May-23 08:33N 56°54' E 011°53'9 8.6
2015-May-23 07:34N 56°46' E 011°60'8 8.3
2015-May-23 06:33N 56°39' E 012°06'9 8.7
2015-May-23 05:33N 56°31' E 012°12'9 9.3
2015-May-23 04:33N 56°22' E 012°20'10 9.7
2015-May-23 03:33N 56°13' E 012°27'1010.1
2015-May-23 02:34N 56°05' E 012°37'10 9.7
2015-May-23 01:34N 55°56' E 012°44'10 9.8
2015-May-23 00:34N 55°46' E 012°42'1010.0
2015-May-22 23:34N 55°36' E 012°42'1010.0
2015-May-22 22:33N 55°26' E 012°42'9 8.8
2015-May-22 21:34N 55°18' E 012°45'10 9.7
2015-May-22 20:34N 55°16' E 013°02'10 9.6
2015-May-22 19:33N 55°15' E 013°19'3010.0
2015-May-22 16:31N 55°14' E 014°12'9 9.5
2015-May-22 15:33N 55°19' E 014°25'10 9.9
2015-May-22 14:33N 55°26' E 014°38'10 9.9
2015-May-22 13:33N 55°31' E 014°53'13 9.9
2015-May-22 12:15N 55°38' E 015°12'9 9.8
2015-May-22 11:22N 55°42' E 015°25'9 9.9
2015-May-22 10:27N 55°47' E 015°39'106 9.5
2015-May-21 23:20N 57°13' E 017°31'  
Track history (hours):
 
Tides and Currents Weather Stations Pressure Air Temp Water Temp Dewpoint Dewpoint Depression Visibility Wind Speed Wind Dir Waves Ship Positions

Flinterbothnia

Last reported at 2015-May-27 03:33 UTC. Time now 2015-May-27 03:47 UTC.
Position N 54°50' W 005°40'.

Length 82 m; draft 5 m.

Type: Cargo ship. MMSI: 244741000.

Date/timePositionNaut miles runAvg speedWind from/ knotsBaromVisibWave heightAir tempDewpointWater temp
2015-May-27 03:33N 54°50' W 005°40'18 8.7
2015-May-27 01:31N 55°06' W 005°51'1010.4
2015-May-27 00:34N 55°15' W 006°00'9 9.3
2015-May-26 23:33N 55°22' W 006°12'9 9.4
2015-May-26 22:33N 55°29' W 006°22'9 8.8
2015-May-26 21:33N 55°36' W 006°30'8 7.7
2015-May-26 20:33N 55°44' W 006°34'147 9.0
2015-May-26 04:08N 58°09' W 005°50'6 9.7
2015-May-26 03:33N 58°13' W 005°43'10 9.4
2015-May-26 02:29N 58°21' W 005°30'40 7.9
2015-May-25 21:25N 58°40' W 004°23'8 9.0
2015-May-25 20:34N 58°40' W 004°08'9 8.9
2015-May-25 19:33N 58°41' W 003°51'13 9.1
2015-May-25 18:05N 58°42' W 003°25'6 8.7
2015-May-25 17:23N 58°42' W 003°13'6 7.6
2015-May-25 16:33N 58°42' W 003°01'8 7.6
2015-May-25 15:33N 58°41' W 002°46'385 9.1
2015-May-23 21:11N 57°50' E 009°19'5 8.2
2015-May-23 20:33N 57°50' E 009°28'8 8.1
2015-May-23 19:33N 57°50' E 009°43'8 8.3
2015-May-23 18:33N 57°49' E 009°59'9 8.7
2015-May-23 17:34N 57°49' E 010°15'9 8.6
2015-May-23 16:33N 57°48' E 010°31'8 8.3
2015-May-23 15:34N 57°47' E 010°47'9 9.3
2015-May-23 14:34N 57°41' E 010°60'10 9.5
2015-May-23 13:33N 57°35' E 011°13'1010.3
2015-May-23 12:34N 57°27' E 011°26'10 9.6
2015-May-23 11:34N 57°18' E 011°33'11 9.2
2015-May-23 10:25N 57°09' E 011°41'8 9.0
2015-May-23 09:33N 57°02' E 011°47'9 8.7
2015-May-23 08:33N 56°54' E 011°53'9 8.6
2015-May-23 07:34N 56°46' E 011°60'8 8.3
2015-May-23 06:33N 56°39' E 012°06'9 8.7
2015-May-23 05:33N 56°31' E 012°12'9 9.3
2015-May-23 04:33N 56°22' E 012°20'10 9.7
2015-May-23 03:33N 56°13' E 012°27'1010.1
2015-May-23 02:34N 56°05' E 012°37'10 9.7
2015-May-23 01:34N 55°56' E 012°44'10 9.8
2015-May-23 00:34N 55°46' E 012°42'1010.0
2015-May-22 23:34N 55°36' E 012°42'1010.0
2015-May-22 22:33N 55°26' E 012°42'9 8.8
2015-May-22 21:34N 55°18' E 012°45'10 9.7
2015-May-22 20:34N 55°16' E 013°02'10 9.6
2015-May-22 19:33N 55°15' E 013°19'3010.0
2015-May-22 16:31N 55°14' E 014°12'9 9.5
2015-May-22 15:33N 55°19' E 014°25'10 9.9
2015-May-22 14:33N 55°26' E 014°38'10 9.9
2015-May-22 13:33N 55°31' E 014°53'13 9.9
2015-May-22 12:15N 55°38' E 015°12'9 9.8
2015-May-22 11:22N 55°42' E 015°25'9 9.9
2015-May-22 10:27N 55°47' E 015°39'106 9.5
2015-May-21 23:20N 57°13' E 017°31'  

Dump ship's entire track history